1967 Tropical Low NOT_NAMED (1967340S15152)


IBTrACS version v04r00. Visit IBTrACS website for data access.
Please direct all questions to the IBTrACS Q and A forum

Storm track - Intensity - Wind Radii - Intensity Data - Source Data - All data

Summary Information

Storm ID 1967340S15152
Start Dec 5 23Z
Max Intensity 996 mb (Dec 8 23Z)
End Dec 10 20Z
ATCF IDs ,SH021968
Track status Best track data.

Storm track plot

Map of storm track

Intensity plots

Map of storm track

Radial wind information

No radial wind information for this storm


Position and Intensity Table

BASIN ISO_TIME_________ NATURE LAT LON WMO PRES BOM PRES
degrees north degrees east mb mb
SP 1967-12-05 23:00:00 NR -15.10 152.00
SP 1967-12-06 00:00:00 TS -15.12 151.91
SP 03:00:00 TS -15.30 151.63
SP 05:00:00 TS -15.42 151.46 1005 1005
SP 06:00:00 TS -15.50 151.35 1005
SP 08:00:00 TS -15.64 151.10 1005 1005
SP 09:00:00 TS -15.70 150.95 1005
SP 11:00:00 TS -15.82 150.65 1005 1005
SP 12:00:00 TS -15.89 150.48 1005
SP 14:00:00 TS -16.04 150.13 1005 1005
SP 15:00:00 TS -16.12 149.96 1005
SP 17:00:00 TS -16.28 149.67 1005 1005
SP 18:00:00 TS -16.37 149.56 1005
SP 20:00:00 TS -16.59 149.39 1005 1005
SP 21:00:00 TS -16.71 149.33 1005
SP 23:00:00 TS -16.90 149.32 1005 1005
SP 1967-12-07 00:00:00 TS -16.95 149.38 1005
SP 02:00:00 TS -16.94 149.62 1005 1005
SP 03:00:00 TS -16.90 149.78 1004
SP 05:00:00 TS -16.81 150.13 1003 1003
SP 06:00:00 TS -16.80 150.30 1003
SP 08:00:00 TS -16.83 150.60 1003 1003
SP 09:00:00 TS -16.85 150.73 1003
SP 11:00:00 TS -16.96 150.97 1003 1003
SP 12:00:00 TS -17.04 151.06 1003
SP 14:00:00 TS -17.23 151.19 1003 1003
SP 15:00:00 TS -17.34 151.26 1003
SP 17:00:00 TS -17.62 151.40 1003 1003
SP 18:00:00 TS -17.79 151.48 1003
SP 20:00:00 TS -18.19 151.72 1003 1003
SP 21:00:00 TS -18.41 151.85 1003
SP 23:00:00 TS -18.91 152.16 1003 1003
SP 1967-12-08 00:00:00 TS -19.18 152.33 1003
SP 02:00:00 TS -19.77 152.68 1003 1003
SP 03:00:00 TS -20.08 152.87 1003
SP 05:00:00 TS -20.74 153.27 1003 1003
SP 06:00:00 TS -21.08 153.47 1003
SP 08:00:00 TS -21.79 153.87 1003 1003
SP 09:00:00 TS -22.14 154.09 1002
SP 11:00:00 TS -22.86 154.56 1002 1002
SP 12:00:00 TS -23.22 154.79 1001
SP 14:00:00 TS -23.93 155.27 1000 1000
SP 15:00:00 TS -24.26 155.54 999
SP 17:00:00 TS -24.87 156.07 998 998
SP 18:00:00 TS -25.13 156.30 998
SP 20:00:00 TS -25.61 156.72 998 998
SP 21:00:00 TS -25.84 156.92 997
SP 23:00:00 TS -26.28 157.32 996 996
SP 1967-12-09 00:00:00 TS -26.47 157.51 996
SP 02:00:00 TS -26.85 157.89 996 996
SP 03:00:00 TS -27.02 158.08 996
SP 05:00:00 TS -27.33 158.47 996 996
SP 06:00:00 TS -27.49 158.66 996
SP 08:00:00 TS -27.78 159.04 996 996
SP 09:00:00 TS -27.90 159.24 996
SP 11:00:00 TS -28.12 159.68 996 996
SP 12:00:00 TS -28.24 159.92 996
SP 14:00:00 TS -28.47 160.44 996 996
SP 15:00:00 TS -28.56 160.70 997
SP 17:00:00 TS -28.69 161.25 1000
SP 18:00:00 TS -28.74 161.53 1000
SP 20:00:00 TS -28.85 162.11 1000
SP 21:00:00 TS -28.90 162.41 1000
SP 23:00:00 TS -29.00 162.99 1000
SP 1967-12-10 00:00:00 TS -29.04 163.25 1000
SP 02:00:00 TS -29.10 163.72 1002
SP 03:00:00 TS -29.13 163.95 1002
SP 05:00:00 TS -29.12 164.32 1004
SP 06:00:00 TS -29.09 164.49 1004
SP 08:00:00 TS -28.90 164.72 1004
SP 09:00:00 TS -28.77 164.73 1004
SP 11:00:00 TS -28.46 164.54 1006
SP 12:00:00 TS -28.29 164.38 1006
SP 14:00:00 TS -28.06 164.12 1007
SP 15:00:00 TS -27.94 163.98 1007
SP 17:00:00 TS -27.70 163.71 1007
SP 18:00:00 TS -27.59 163.58 1007
SP 20:00:00 NR -27.40 163.30 1007

Source Information

Agency Information
USA bsh021968.txt
TOKYO
CMA
HKO
NEWDELHI
REUNION
BOM IDCKMSTM0S.csv:Line=4905:UNNAMED
NADI
WELLINGTON
DS824 s_hem.dat:1039:02P
TD9636 cons_worldwide_trop_cyclone_18710101-19891231-006:Line=7823
TD9635
NEUMANN
MLC

All available IBTrACS Data

SEASON BASIN SUBBASIN ISO_TIME_________ NATURE LAT LON WMO PRES WMO AGENCY DIST2LAND LANDFALL IFLAG USA AGENCY USA ATCF_ID USA LAT USA LON USA SSHS BOM LAT BOM LON BOM PRES DS824 LAT DS824 LON DS824 STAGE TD9636 LAT TD9636 LON TD9636 STAGE STORM SPEED STORM DIR
Year degrees north degrees east mb km km degrees north degrees east 1 degrees north degrees east mb degrees north degrees east degrees north degrees east kts degrees
1968 SP EA 1967-12-05 23:00:00 NR -15.10 152.00 522 518 __________O___ -1 -15.10 152.00 1 5 255
1968 SP EA 1967-12-06 00:00:00 TS -15.12 151.91 518 518 O________OP___ jtwc_sh SH021968 -15.10 151.90 -1 -15.10 151.90 TC -15.14 151.93 1 6 241
1968 SP EA 03:00:00 TS -15.30 151.63 531 531 P________PP___ SH021968 -15.30 151.59 -1 -15.30 151.59 TC -15.29 151.69 1 6 235
1968 SP EA 05:00:00 TS -15.42 151.46 1005 bom 539 537 P_____O__PP___ SH021968 -15.44 151.39 -1 -15.50 151.60 1005 -15.44 151.39 TC -15.39 151.51 1 7 233
1968 SP EA 06:00:00 TS -15.50 151.35 548 546 O_____P__OP___ jtwc_sh SH021968 -15.50 151.30 -1 -15.58 151.40 1005 -15.50 151.30 TC -15.45 151.42 1 8 238
1968 SP EA 08:00:00 TS -15.64 151.10 1005 bom 553 553 P_____O__PP___ SH021968 -15.63 151.12 -1 -15.70 151.00 1005 -15.63 151.12 TC -15.57 151.20 1 9 243
1968 SP EA 09:00:00 TS -15.70 150.95 555 521 P_____P__PP___ SH021968 -15.69 151.02 -1 -15.74 150.81 1005 -15.69 151.02 TC -15.64 151.08 1 10 247
1968 SP EA 11:00:00 TS -15.82 150.65 1005 bom 511 497 P_____O__PO___ SH021968 -15.83 150.82 -1 -15.80 150.40 1005 -15.83 150.82 TC -15.80 150.80 1 10 247
1968 SP EA 12:00:00 TS -15.89 150.48 497 464 O_____P__OP___ jtwc_sh SH021968 -15.90 150.70 -1 -15.86 150.16 1005 -15.90 150.70 TC -15.89 150.64 1 11 246
1968 SP EA 14:00:00 TS -16.04 150.13 1005 bom 454 440 P_____O__PP___ SH021968 -16.05 150.40 -1 -16.00 149.70 1005 -16.05 150.40 TC -16.08 150.31 1 11 245
1968 SP EA 15:00:00 TS -16.12 149.96 440 402 P_____P__PP___ SH021968 -16.14 150.24 -1 -16.06 149.53 1005 -16.14 150.24 TC -16.18 150.14 1 10 241
1968 SP EA 17:00:00 TS -16.28 149.67 1005 bom 402 388 P_____O__PP___ SH021968 -16.31 149.94 -1 -16.20 149.30 1005 -16.31 149.94 TC -16.38 149.82 1 9 236
1968 SP EA 18:00:00 TS -16.37 149.56 388 362 O_____P__OP___ jtwc_sh SH021968 -16.40 149.80 -1 -16.29 149.23 1005 -16.40 149.80 TC -16.48 149.68 1 8 222
1968 SP EA 20:00:00 TS -16.59 149.39 1005 bom 362 349 P_____O__PP___ SH021968 -16.62 149.53 -1 -16.50 149.20 1005 -16.62 149.53 TC -16.67 149.44 1 8 214
1968 SP EA 21:00:00 TS -16.71 149.33 349 344 P_____P__PP___ SH021968 -16.73 149.42 -1 -16.65 149.20 1005 -16.73 149.42 TC -16.75 149.36 1 6 192
1968 SP EA 23:00:00 TS -16.90 149.32 1005 bom 344 344 P_____O__PO___ SH021968 -16.93 149.29 -1 -16.90 149.30 1005 -16.93 149.29 TC -16.90 149.30 1 5 173
1968 SP EA 1967-12-07 00:00:00 TS -16.95 149.38 341 341 O_____P__OP___ jtwc_sh SH021968 -17.00 149.30 -1 -16.92 149.44 1005 -17.00 149.30 TC -16.93 149.36 1 6 97
1968 SP EA 02:00:00 TS -16.94 149.62 1005 bom 363 363 P_____O__PP___ SH021968 -17.07 149.48 -1 -16.80 149.80 1005 -17.07 149.48 TC -16.98 149.57 1 8 82
1968 SP EA 03:00:00 TS -16.90 149.78 377 377 P_____P__PP___ SH021968 -17.08 149.63 -1 -16.67 149.98 1004 -17.08 149.63 TC -16.99 149.72 1 10 75
1968 SP EA 05:00:00 TS -16.81 150.13 1003 bom 405 405 P_____O__PP___ SH021968 -17.09 150.00 -1 -16.40 150.30 1003 -17.09 150.00 TC -17.01 150.07 1 10 78
1968 SP EA 06:00:00 TS -16.80 150.30 415 415 O_____P__OP___ jtwc_sh SH021968 -17.10 150.20 -1 -16.36 150.43 1003 -17.10 150.20 TC -17.02 150.26 1 9 92
1968 SP EA 08:00:00 TS -16.83 150.60 1003 bom 432 432 P_____O__PP___ SH021968 -17.14 150.59 -1 -16.40 150.60 1003 -17.14 150.59 TC -17.06 150.66 1 8 98
1968 SP EA 09:00:00 TS -16.85 150.73 429 429 P_____P__PP___ SH021968 -17.17 150.79 -1 -16.40 150.65 1003 -17.17 150.79 TC -17.09 150.85 1 8 110
1968 SP EA 11:00:00 TS -16.96 150.97 1003 bom 435 435 P_____O__PO___ SH021968 -17.25 151.16 -1 -16.50 150.70 1003 -17.25 151.16 TC -17.20 151.20 1 7 120
1968 SP EA 12:00:00 TS -17.04 151.06 441 429 O_____P__OP___ jtwc_sh SH021968 -17.30 151.30 -1 -16.64 150.72 1003 -17.30 151.30 TC -17.27 151.29 1 7 143
1968 SP EA 14:00:00 TS -17.23 151.19 1003 bom 429 420 P_____O__PP___ SH021968 -17.39 151.44 -1 -17.00 150.80 1003 -17.39 151.44 TC -17.43 151.44 1 7 148
1968 SP EA 15:00:00 TS -17.34 151.26 426 407 P_____P__PP___ SH021968 -17.46 151.48 -1 -17.16 150.87 1003 -17.46 151.48 TC -17.54 151.50 1 9 153
1968 SP EA 17:00:00 TS -17.62 151.40 1003 bom 407 398 P_____O__PP___ SH021968 -17.66 151.55 -1 -17.50 151.10 1003 -17.66 151.55 TC -17.78 151.62 1 10 154
1968 SP EA 18:00:00 TS -17.79 151.48 398 390 O_____P__OP___ jtwc_sh SH021968 -17.80 151.60 -1 -17.72 151.25 1003 -17.80 151.60 TC -17.92 151.68 1 13 151
1968 SP EA 20:00:00 TS -18.19 151.72 1003 bom 384 379 P_____O__PP___ SH021968 -18.16 151.78 -1 -18.20 151.60 1003 -18.16 151.78 TC -18.26 151.81 1 14 150
1968 SP EA 21:00:00 TS -18.41 151.85 388 379 P_____P__PP___ SH021968 -18.39 151.89 -1 -18.43 151.79 1003 -18.39 151.89 TC -18.45 151.89 1 17 150
1968 SP EA 23:00:00 TS -18.91 152.16 1003 bom 389 383 P_____O__PO___ SH021968 -18.91 152.15 -1 -18.90 152.20 1003 -18.91 152.15 TC -18.90 152.10 1 18 150
1968 SP EA 1967-12-08 00:00:00 TS -19.18 152.33 384 360 O_____P__OP___ jtwc_sh SH021968 -19.20 152.30 -1 -19.15 152.40 1003 -19.20 152.30 TC -19.16 152.24 1 20 150
1968 SP EA 02:00:00 TS -19.77 152.68 1003 bom 357 345 P_____O__PP___ SH021968 -19.82 152.62 -1 -19.70 152.80 1003 -19.82 152.62 TC -19.73 152.57 1 21 150
1968 SP EA 03:00:00 TS -20.08 152.87 343 319 P_____P__PP___ SH021968 -20.16 152.81 -1 -19.98 153.01 1003 -20.16 152.81 TC -20.05 152.76 1 22 150
1968 SP EA 05:00:00 TS -20.74 153.27 1003 bom 327 314 P_____O__PP___ SH021968 -20.86 153.19 -1 -20.60 153.40 1003 -20.86 153.19 TC -20.72 153.16 1 23 151
1968 SP EA 06:00:00 TS -21.08 153.47 319 313 O_____P__OP___ jtwc_sh SH021968 -21.20 153.40 -1 -20.95 153.56 1003 -21.20 153.40 TC -21.06 153.37 1 24 152
1968 SP EA 08:00:00 TS -21.79 153.87 1003 bom 328 312 P_____O__PP___ SH021968 -21.85 153.81 -1 -21.70 153.90 1003 -21.85 153.81 TC -21.76 153.81 1 24 151
1968 SP EA 09:00:00 TS -22.14 154.09 312 254 P_____P__PP___ SH021968 -22.16 154.03 -1 -22.08 154.15 1002 -22.16 154.03 TC -22.12 154.04 1 25 149
1968 SP EA 11:00:00 TS -22.86 154.56 1002 bom 250 234 P_____O__PO___ SH021968 -22.79 154.47 -1 -22.90 154.70 1002 -22.79 154.47 TC -22.80 154.50 1 25 149
1968 SP EA 12:00:00 TS -23.22 154.79 234 213 O_____P__OP___ jtwc_sh SH021968 -23.10 154.70 -1 -23.37 154.93 1001 -23.10 154.70 TC -23.12 154.72 1 25 149
1968 SP EA 14:00:00 TS -23.93 155.27 1000 bom 226 221 P_____O__PP___ SH021968 -23.71 155.16 -1 -24.30 155.40 1000 -23.71 155.16 TC -23.76 155.17 1 25 147
1968 SP EA 15:00:00 TS -24.26 155.54 226 226 P_____P__PP___ SH021968 -24.01 155.39 -1 -24.70 155.74 999 -24.01 155.39 TC -24.08 155.41 1 24 142
1968 SP EA 17:00:00 TS -24.87 156.07 998 bom 272 272 P_____O__PP___ SH021968 -24.61 155.86 -1 -25.30 156.40 998 -24.61 155.86 TC -24.69 155.88 1 22 141
1968 SP EA 18:00:00 TS -25.13 156.30 292 292 O_____P__OP___ jtwc_sh SH021968 -24.90 156.10 -1 -25.48 156.61 998 -24.90 156.10 TC -24.99 156.11 1 19 142
1968 SP EA 20:00:00 TS -25.61 156.72 998 bom 338 338 P_____O__PP___ SH021968 -25.51 156.57 -1 -25.70 156.90 998 -25.51 156.57 TC -25.55 156.59 1 18 142
1968 SP EA 21:00:00 TS -25.84 156.92 362 362 P_____P__PP___ SH021968 -25.80 156.80 -1 -25.86 157.07 997 -25.80 156.80 TC -25.81 156.83 1 17 141
1968 SP EA 23:00:00 TS -26.28 157.32 996 bom 416 416 P_____O__PO___ SH021968 -26.35 157.27 -1 -26.20 157.40 996 -26.35 157.27 TC -26.30 157.30 2 17 140
1968 SP EA 1967-12-09 00:00:00 TS -26.47 157.51 429 429 O_____P__OP___ jtwc_sh SH021968 -26.60 157.50 -1 -26.34 157.54 996 -26.60 157.50 TC -26.53 157.53 2 15 138
1968 SP EA 02:00:00 TS -26.85 157.89 996 bom 451 447 P_____O__PP___ SH021968 -27.04 157.97 -1 -26.60 157.80 996 -27.04 157.97 TC -26.96 157.97 2 15 137
1968 SP EA 03:00:00 TS -27.02 158.08 462 459 P_____P__PP___ SH021968 -27.22 158.21 -1 -26.73 157.93 996 -27.22 158.21 TC -27.15 158.19 2 14 134
1968 SP EA 05:00:00 TS -27.33 158.47 996 bom 492 489 P_____O__PP___ SH021968 -27.56 158.67 -1 -27.00 158.20 996 -27.56 158.67 TC -27.51 158.64 2 14 133
1968 SP EA 06:00:00 TS -27.49 158.66 506 506 O_____P__OP___ jtwc_sh SH021968 -27.70 158.90 -1 -27.17 158.32 996 -27.70 158.90 TC -27.67 158.86 2 14 131
1968 SP EA 08:00:00 TS -27.78 159.04 996 bom 531 531 P_____O__PP___ SH021968 -27.98 159.33 -1 -27.50 158.60 996 -27.98 159.33 TC -27.95 159.31 2 13 128
1968 SP EA 09:00:00 TS -27.90 159.24 549 549 P_____P__PP___ SH021968 -28.10 159.54 -1 -27.60 158.77 996 -28.10 159.54 TC -28.08 159.54 2 13 121
1968 SP EA 11:00:00 TS -28.12 159.68 996 bom 597 597 P_____O__PO___ SH021968 -28.31 159.97 -1 -27.80 159.20 996 -28.31 159.97 TC -28.30 160.00 2 14 120
1968 SP EA 12:00:00 TS -28.24 159.92 616 616 O_____P__OP___ jtwc_sh SH021968 -28.40 160.20 -1 -28.00 159.45 996 -28.40 160.20 TC -28.41 160.26 2 15 118
1968 SP MM 14:00:00 TS -28.47 160.44 996 bom 663 663 P_____O__PP___ SH021968 -28.57 160.72 -1 -28.40 160.00 996 -28.57 160.72 TC -28.61 160.78 2 15 115
1968 SP MM 15:00:00 TS -28.56 160.70 691 691 P_____P__PP___ SH021968 -28.64 160.99 -1 -28.50 160.26 997 -28.64 160.99 TC -28.69 161.04 2 15 107
1968 SP MM 17:00:00 TS -28.69 161.25 739 739 P_____O__PP___ SH021968 -28.75 161.54 -1 -28.60 160.80 1000 -28.75 161.54 TC -28.82 161.57 2 15 104
1968 SP MM 18:00:00 TS -28.74 161.53 769 769 O_____P__OP___ jtwc_sh SH021968 -28.80 161.80 -1 -28.63 161.11 1000 -28.80 161.80 TC -28.88 161.83 2 16 102
1968 SP MM 20:00:00 TS -28.85 162.11 826 826 P_____O__PP___ SH021968 -28.90 162.30 -1 -28.70 161.80 1000 -28.90 162.30 TC -28.95 162.32 2 16 102
1968 SP MM 21:00:00 TS -28.90 162.41 839 825 P_____P__PP___ SH021968 -28.94 162.55 -1 -28.78 162.19 1000 -28.94 162.55 TC -28.98 162.56 2 16 101
1968 SP MM 23:00:00 TS -29.00 162.99 822 814 P_____O__PO___ SH021968 -28.99 162.99 -1 -29.00 163.00 1000 -28.99 162.99 TC -29.00 163.00 2 15 101
1968 SP MM 1967-12-10 00:00:00 TS -29.04 163.25 810 806 O_____P__OP___ jtwc_sh SH021968 -29.00 163.20 -1 -29.11 163.37 1000 -29.00 163.20 TC -29.00 163.20 2 13 98
1968 SP MM 02:00:00 TS -29.10 163.72 806 799 P_____O__PP___ SH021968 -28.99 163.57 -1 -29.30 164.00 1002 -28.99 163.57 TC -28.98 163.56 2 12 98
1968 SP MM 03:00:00 TS -29.13 163.95 799 785 P_____P__PP___ SH021968 -28.98 163.74 -1 -29.38 164.25 1002 -28.98 163.74 TC -28.97 163.73 2 10 93
1968 SP MM 05:00:00 TS -29.12 164.32 785 780 P_____O__PP___ SH021968 -28.93 164.05 -1 -29.40 164.60 1004 -28.93 164.05 TC -28.92 164.03 2 10 86
1968 SP MM 06:00:00 TS -29.09 164.49 780 753 O_____P__OP___ jtwc_sh SH021968 -28.90 164.20 -1 -29.28 164.76 1004 -28.90 164.20 TC -28.89 164.17 2 8 58
1968 SP MM 08:00:00 TS -28.90 164.72 753 742 ______O___P___ SH021968 -1 -28.90 164.90 1004 TC -28.82 164.43 2 8 32
1968 SP MM 09:00:00 TS -28.77 164.73 742 713 ______P___P___ SH021968 -1 -28.72 164.82 1004 TC -28.78 164.56 2 9 340
1968 SP MM 11:00:00 TS -28.46 164.54 716 698 ______O___O___ SH021968 -1 -28.40 164.50 1006 TC -28.70 164.80 7 11 328
1968 SP MM 12:00:00 TS -28.29 164.38 698 684 ______P_______ -1 -28.29 164.37 1006 7 11 317
1968 SP MM 14:00:00 TS -28.06 164.12 687 677 ______O_______ -1 -28.10 164.10 1007 7 10 315
1968 SP MM 15:00:00 TS -27.94 163.98 670 657 ______P_______ -1 -27.97 163.97 1007 7 10 315
1968 SP MM 17:00:00 TS -27.70 163.71 661 655 ______O_______ -1 -27.70 163.70 1007 7 10 314
1968 SP MM 18:00:00 TS -27.59 163.58 655 645 ______P_______ -1 -27.59 163.57 1007 7 9 309
1968 SP MM 20:00:00 NR -27.40 163.30 649 ______O_______ -1 -27.40 163.30 1007 7 9 308